sensor_id;sensor_type;location;lat;lon;timestamp;P1;durP1;ratioP1;P2;durP2;ratioP2
22837;SDS011;11585;51.450;-0.240;2023-12-29T00:01:21;0.90;;;0.90;;
22837;SDS011;11585;51.450;-0.240;2023-12-29T00:03:46;0.90;;;0.90;;
22837;SDS011;11585;51.450;-0.240;2023-12-29T00:06:12;0.90;;;0.90;;
22837;SDS011;11585;51.450;-0.240;2023-12-29T00:08:38;0.90;;;0.90;;
22837;SDS011;11585;51.450;-0.240;2023-12-29T00:11:03;0.90;;;0.90;;
22837;SDS011;11585;51.450;-0.240;2023-12-29T00:13:29;0.80;;;0.80;;
22837;SDS011;11585;51.450;-0.240;2023-12-29T00:15:57;0.88;;;0.88;;
22837;SDS011;11585;51.450;-0.240;2023-12-29T00:18:23;0.88;;;0.88;;
22837;SDS011;11585;51.450;-0.240;2023-12-29T00:20:49;0.90;;;0.90;;
22837;SDS011;11585;51.450;-0.240;2023-12-29T00:23:15;0.80;;;0.80;;
22837;SDS011;11585;51.450;-0.240;2023-12-29T00:25:41;0.90;;;0.90;;
22837;SDS011;11585;51.450;-0.240;2023-12-29T00:28:07;0.90;;;0.90;;
22837;SDS011;11585;51.450;-0.240;2023-12-29T00:30:33;0.90;;;0.90;;
22837;SDS011;11585;51.450;-0.240;2023-12-29T00:33:02;0.80;;;0.80;;
22837;SDS011;11585;51.450;-0.240;2023-12-29T00:38:12;0.90;;;0.90;;
22837;SDS011;11585;51.450;-0.240;2023-12-29T00:40:38;0.80;;;0.80;;
22837;SDS011;11585;51.450;-0.240;2023-12-29T00:43:04;0.88;;;0.88;;
22837;SDS011;11585;51.450;-0.240;2023-12-29T00:48:15;0.90;;;0.90;;
22837;SDS011;11585;51.450;-0.240;2023-12-29T00:50:40;0.80;;;0.80;;
22837;SDS011;11585;51.450;-0.240;2023-12-29T00:53:07;0.90;;;0.90;;
22837;SDS011;11585;51.450;-0.240;2023-12-29T01:00:27;0.90;;;0.90;;
22837;SDS011;11585;51.450;-0.240;2023-12-29T01:02:52;0.90;;;0.90;;
22837;SDS011;11585;51.450;-0.240;2023-12-29T01:08:04;0.80;;;0.80;;
22837;SDS011;11585;51.450;-0.240;2023-12-29T01:10:29;0.90;;;0.90;;
22837;SDS011;11585;51.450;-0.240;2023-12-29T01:12:55;0.90;;;0.90;;
22837;SDS011;11585;51.450;-0.240;2023-12-29T01:18:43;0.90;;;0.90;;
22837;SDS011;11585;51.450;-0.240;2023-12-29T01:21:09;0.90;;;0.90;;
22837;SDS011;11585;51.450;-0.240;2023-12-29T01:23:34;0.95;;;0.95;;
22837;SDS011;11585;51.450;-0.240;2023-12-29T01:29:22;0.90;;;0.90;;
22837;SDS011;11585;51.450;-0.240;2023-12-29T01:37:39;0.90;;;0.90;;
22837;SDS011;11585;51.450;-0.240;2023-12-29T01:40:04;0.90;;;0.90;;
22837;SDS011;11585;51.450;-0.240;2023-12-29T01:42:30;0.90;;;0.90;;
22837;SDS011;11585;51.450;-0.240;2023-12-29T01:44:56;0.90;;;0.90;;
22837;SDS011;11585;51.450;-0.240;2023-12-29T01:47:22;0.90;;;0.90;;
22837;SDS011;11585;51.450;-0.240;2023-12-29T01:49:48;0.90;;;0.90;;
22837;SDS011;11585;51.450;-0.240;2023-12-29T01:52:16;0.90;;;0.90;;
22837;SDS011;11585;51.450;-0.240;2023-12-29T01:54:43;0.90;;;0.90;;
22837;SDS011;11585;51.450;-0.240;2023-12-29T01:57:10;0.88;;;0.88;;
22837;SDS011;11585;51.450;-0.240;2023-12-29T01:59:36;1.00;;;1.00;;
22837;SDS011;11585;51.450;-0.240;2023-12-29T02:02:03;0.90;;;0.90;;
22837;SDS011;11585;51.450;-0.240;2023-12-29T02:04:29;0.80;;;0.80;;
22837;SDS011;11585;51.450;-0.240;2023-12-29T02:06:55;0.90;;;0.90;;
22837;SDS011;11585;51.450;-0.240;2023-12-29T02:09:21;0.90;;;0.90;;
22837;SDS011;11585;51.450;-0.240;2023-12-29T02:11:48;0.95;;;0.95;;
22837;SDS011;11585;51.450;-0.240;2023-12-29T02:14:14;0.90;;;0.90;;
22837;SDS011;11585;51.450;-0.240;2023-12-29T02:16:52;0.90;;;0.90;;
22837;SDS011;11585;51.450;-0.240;2023-12-29T02:22:01;0.90;;;0.90;;
22837;SDS011;11585;51.450;-0.240;2023-12-29T02:27:17;0.80;;;0.80;;
22837;SDS011;11585;51.450;-0.240;2023-12-29T02:32:54;0.90;;;0.90;;
22837;SDS011;11585;51.450;-0.240;2023-12-29T02:35:26;0.90;;;0.90;;
22837;SDS011;11585;51.450;-0.240;2023-12-29T02:37:54;0.90;;;0.90;;
22837;SDS011;11585;51.450;-0.240;2023-12-29T02:40:20;0.90;;;0.90;;
22837;SDS011;11585;51.450;-0.240;2023-12-29T02:42:47;0.80;;;0.80;;
22837;SDS011;11585;51.450;-0.240;2023-12-29T02:48:18;0.90;;;0.90;;
22837;SDS011;11585;51.450;-0.240;2023-12-29T02:50:43;0.90;;;0.90;;
22837;SDS011;11585;51.450;-0.240;2023-12-29T02:53:09;1.00;;;1.00;;
22837;SDS011;11585;51.450;-0.240;2023-12-29T02:55:35;0.90;;;0.90;;
22837;SDS011;11585;51.450;-0.240;2023-12-29T02:58:00;0.90;;;0.90;;
22837;SDS011;11585;51.450;-0.240;2023-12-29T03:00:26;0.90;;;0.90;;
22837;SDS011;11585;51.450;-0.240;2023-12-29T03:02:52;0.90;;;0.90;;
22837;SDS011;11585;51.450;-0.240;2023-12-29T03:08:21;0.90;;;0.90;;
22837;SDS011;11585;51.450;-0.240;2023-12-29T03:10:46;0.90;;;0.90;;
22837;SDS011;11585;51.450;-0.240;2023-12-29T03:13:12;0.90;;;0.90;;
22837;SDS011;11585;51.450;-0.240;2023-12-29T03:18:42;0.90;;;0.90;;
22837;SDS011;11585;51.450;-0.240;2023-12-29T03:21:07;0.90;;;0.90;;
22837;SDS011;11585;51.450;-0.240;2023-12-29T03:23:33;0.90;;;0.90;;
22837;SDS011;11585;51.450;-0.240;2023-12-29T03:26:01;0.90;;;0.90;;
22837;SDS011;11585;51.450;-0.240;2023-12-29T03:28:27;0.90;;;0.90;;
22837;SDS011;11585;51.450;-0.240;2023-12-29T03:30:53;0.90;;;0.90;;
22837;SDS011;11585;51.450;-0.240;2023-12-29T03:33:18;0.90;;;0.90;;
22837;SDS011;11585;51.450;-0.240;2023-12-29T03:35:46;0.90;;;0.90;;
22837;SDS011;11585;51.450;-0.240;2023-12-29T03:38:12;1.00;;;1.00;;
22837;SDS011;11585;51.450;-0.240;2023-12-29T03:40:39;0.90;;;0.90;;
22837;SDS011;11585;51.450;-0.240;2023-12-29T03:43:05;0.90;;;0.90;;
22837;SDS011;11585;51.450;-0.240;2023-12-29T03:48:00;0.90;;;0.90;;
22837;SDS011;11585;51.450;-0.240;2023-12-29T03:50:26;0.90;;;0.90;;
22837;SDS011;11585;51.450;-0.240;2023-12-29T03:52:51;0.90;;;0.90;;
22837;SDS011;11585;51.450;-0.240;2023-12-29T03:55:17;0.90;;;0.90;;
22837;SDS011;11585;51.450;-0.240;2023-12-29T03:57:43;0.90;;;0.90;;
22837;SDS011;11585;51.450;-0.240;2023-12-29T04:00:11;0.90;;;0.90;;
22837;SDS011;11585;51.450;-0.240;2023-12-29T04:02:40;0.80;;;0.80;;
22837;SDS011;11585;51.450;-0.240;2023-12-29T04:05:08;0.90;;;0.90;;
22837;SDS011;11585;51.450;-0.240;2023-12-29T04:07:35;0.85;;;0.85;;
22837;SDS011;11585;51.450;-0.240;2023-12-29T04:10:00;0.90;;;0.90;;
22837;SDS011;11585;51.450;-0.240;2023-12-29T04:12:26;0.85;;;0.85;;
22837;SDS011;11585;51.450;-0.240;2023-12-29T04:18:14;0.90;;;0.90;;
22837;SDS011;11585;51.450;-0.240;2023-12-29T04:20:39;0.90;;;0.90;;
22837;SDS011;11585;51.450;-0.240;2023-12-29T04:23:06;0.80;;;0.80;;
22837;SDS011;11585;51.450;-0.240;2023-12-29T04:28:17;0.90;;;0.90;;
22837;SDS011;11585;51.450;-0.240;2023-12-29T04:30:42;0.80;;;0.80;;
22837;SDS011;11585;51.450;-0.240;2023-12-29T04:33:08;0.90;;;0.90;;
22837;SDS011;11585;51.450;-0.240;2023-12-29T04:38:56;0.80;;;0.80;;
22837;SDS011;11585;51.450;-0.240;2023-12-29T04:41:21;0.90;;;0.90;;
22837;SDS011;11585;51.450;-0.240;2023-12-29T04:43:47;0.90;;;0.90;;
22837;SDS011;11585;51.450;-0.240;2023-12-29T04:46:15;0.90;;;0.90;;
22837;SDS011;11585;51.450;-0.240;2023-12-29T04:48:40;0.90;;;0.90;;
22837;SDS011;11585;51.450;-0.240;2023-12-29T04:51:06;0.90;;;0.90;;
22837;SDS011;11585;51.450;-0.240;2023-12-29T04:53:31;0.90;;;0.90;;
22837;SDS011;11585;51.450;-0.240;2023-12-29T04:58:43;1.00;;;1.00;;
22837;SDS011;11585;51.450;-0.240;2023-12-29T05:01:08;0.90;;;0.90;;
22837;SDS011;11585;51.450;-0.240;2023-12-29T05:03:34;0.90;;;0.90;;
22837;SDS011;11585;51.450;-0.240;2023-12-29T05:08:30;0.90;;;0.90;;
22837;SDS011;11585;51.450;-0.240;2023-12-29T05:10:55;0.90;;;0.90;;
22837;SDS011;11585;51.450;-0.240;2023-12-29T05:13:21;0.80;;;0.80;;
22837;SDS011;11585;51.450;-0.240;2023-12-29T05:18:32;0.95;;;0.95;;
22837;SDS011;11585;51.450;-0.240;2023-12-29T05:20:57;0.90;;;0.90;;
22837;SDS011;11585;51.450;-0.240;2023-12-29T05:23:23;0.80;;;0.80;;
22837;SDS011;11585;51.450;-0.240;2023-12-29T05:25:51;0.90;;;0.90;;
22837;SDS011;11585;51.450;-0.240;2023-12-29T05:28:16;0.90;;;0.90;;
22837;SDS011;11585;51.450;-0.240;2023-12-29T05:30:42;0.90;;;0.90;;
22837;SDS011;11585;51.450;-0.240;2023-12-29T05:33:07;0.90;;;0.90;;
22837;SDS011;11585;51.450;-0.240;2023-12-29T05:35:33;0.85;;;0.85;;
22837;SDS011;11585;51.450;-0.240;2023-12-29T05:37:59;0.90;;;0.90;;
22837;SDS011;11585;51.450;-0.240;2023-12-29T05:40:25;0.80;;;0.80;;
22837;SDS011;11585;51.450;-0.240;2023-12-29T05:42:50;0.80;;;0.80;;
22837;SDS011;11585;51.450;-0.240;2023-12-29T05:45:17;0.80;;;0.80;;
22837;SDS011;11585;51.450;-0.240;2023-12-29T05:47:43;0.90;;;0.90;;
22837;SDS011;11585;51.450;-0.240;2023-12-29T05:50:09;0.90;;;0.90;;
22837;SDS011;11585;51.450;-0.240;2023-12-29T05:52:34;0.90;;;0.90;;
22837;SDS011;11585;51.450;-0.240;2023-12-29T05:55:02;0.90;;;0.90;;
22837;SDS011;11585;51.450;-0.240;2023-12-29T05:57:28;0.90;;;0.90;;
22837;SDS011;11585;51.450;-0.240;2023-12-29T05:59:53;0.90;;;0.90;;
22837;SDS011;11585;51.450;-0.240;2023-12-29T06:02:19;1.00;;;1.00;;
22837;SDS011;11585;51.450;-0.240;2023-12-29T06:04:45;0.90;;;0.90;;
22837;SDS011;11585;51.450;-0.240;2023-12-29T06:07:11;0.90;;;0.90;;
22837;SDS011;11585;51.450;-0.240;2023-12-29T06:09:36;1.00;;;1.00;;
22837;SDS011;11585;51.450;-0.240;2023-12-29T06:12:02;0.90;;;0.90;;
22837;SDS011;11585;51.450;-0.240;2023-12-29T06:14:28;1.00;;;1.00;;
22837;SDS011;11585;51.450;-0.240;2023-12-29T06:16:53;1.00;;;1.00;;
22837;SDS011;11585;51.450;-0.240;2023-12-29T06:19:19;0.90;;;0.90;;
22837;SDS011;11585;51.450;-0.240;2023-12-29T06:21:45;1.00;;;1.00;;
22837;SDS011;11585;51.450;-0.240;2023-12-29T06:24:10;1.00;;;1.00;;
22837;SDS011;11585;51.450;-0.240;2023-12-29T06:26:37;1.10;;;1.10;;
22837;SDS011;11585;51.450;-0.240;2023-12-29T06:29:08;1.00;;;1.00;;
22837;SDS011;11585;51.450;-0.240;2023-12-29T06:31:34;0.90;;;0.90;;
22837;SDS011;11585;51.450;-0.240;2023-12-29T06:33:59;1.00;;;1.00;;
22837;SDS011;11585;51.450;-0.240;2023-12-29T06:38:55;1.00;;;1.00;;
22837;SDS011;11585;51.450;-0.240;2023-12-29T06:41:21;1.00;;;1.00;;
22837;SDS011;11585;51.450;-0.240;2023-12-29T06:43:46;1.10;;;1.10;;
22837;SDS011;11585;51.450;-0.240;2023-12-29T06:46:12;1.00;;;1.00;;
22837;SDS011;11585;51.450;-0.240;2023-12-29T06:48:39;1.20;;;1.20;;
22837;SDS011;11585;51.450;-0.240;2023-12-29T06:51:04;1.02;;;1.02;;
22837;SDS011;11585;51.450;-0.240;2023-12-29T06:53:30;1.10;;;1.10;;
22837;SDS011;11585;51.450;-0.240;2023-12-29T06:58:59;1.00;;;1.00;;
22837;SDS011;11585;51.450;-0.240;2023-12-29T07:01:25;1.00;;;1.00;;
22837;SDS011;11585;51.450;-0.240;2023-12-29T07:03:50;1.10;;;1.10;;
22837;SDS011;11585;51.450;-0.240;2023-12-29T07:06:16;1.00;;;1.00;;
22837;SDS011;11585;51.450;-0.240;2023-12-29T07:08:42;1.00;;;1.00;;
22837;SDS011;11585;51.450;-0.240;2023-12-29T07:11:11;1.00;;;1.00;;
22837;SDS011;11585;51.450;-0.240;2023-12-29T07:18:49;1.00;;;1.00;;
22837;SDS011;11585;51.450;-0.240;2023-12-29T07:21:15;1.00;;;1.00;;
22837;SDS011;11585;51.450;-0.240;2023-12-29T07:23:41;1.00;;;1.00;;
22837;SDS011;11585;51.450;-0.240;2023-12-29T07:28:54;1.05;;;1.05;;
22837;SDS011;11585;51.450;-0.240;2023-12-29T07:31:20;1.00;;;1.00;;
22837;SDS011;11585;51.450;-0.240;2023-12-29T07:33:46;1.10;;;1.10;;
22837;SDS011;11585;51.450;-0.240;2023-12-29T07:39:18;1.00;;;1.00;;
22837;SDS011;11585;51.450;-0.240;2023-12-29T07:41:44;1.02;;;1.02;;
22837;SDS011;11585;51.450;-0.240;2023-12-29T07:44:10;1.05;;;1.05;;
22837;SDS011;11585;51.450;-0.240;2023-12-29T07:49:58;1.10;;;1.10;;
22837;SDS011;11585;51.450;-0.240;2023-12-29T07:58:52;1.00;;;1.00;;
22837;SDS011;11585;51.450;-0.240;2023-12-29T08:01:18;1.08;;;1.08;;
22837;SDS011;11585;51.450;-0.240;2023-12-29T08:03:44;1.00;;;1.00;;
22837;SDS011;11585;51.450;-0.240;2023-12-29T08:06:10;1.00;;;1.00;;
22837;SDS011;11585;51.450;-0.240;2023-12-29T08:08:37;1.02;;;1.02;;
22837;SDS011;11585;51.450;-0.240;2023-12-29T08:11:03;1.10;;;1.10;;
22837;SDS011;11585;51.450;-0.240;2023-12-29T08:13:28;0.98;;;0.98;;
22837;SDS011;11585;51.450;-0.240;2023-12-29T08:15:54;0.95;;;0.95;;
22837;SDS011;11585;51.450;-0.240;2023-12-29T08:18:20;1.10;;;1.10;;
22837;SDS011;11585;51.450;-0.240;2023-12-29T08:20:45;1.05;;;1.05;;
22837;SDS011;11585;51.450;-0.240;2023-12-29T08:23:11;1.10;;;1.10;;
22837;SDS011;11585;51.450;-0.240;2023-12-29T08:25:38;1.00;;;1.00;;
22837;SDS011;11585;51.450;-0.240;2023-12-29T08:28:04;1.00;;;1.00;;
22837;SDS011;11585;51.450;-0.240;2023-12-29T08:30:30;1.00;;;1.00;;
22837;SDS011;11585;51.450;-0.240;2023-12-29T08:32:59;1.00;;;1.00;;
22837;SDS011;11585;51.450;-0.240;2023-12-29T08:35:25;1.02;;;1.02;;
22837;SDS011;11585;51.450;-0.240;2023-12-29T08:37:51;1.00;;;1.00;;
22837;SDS011;11585;51.450;-0.240;2023-12-29T08:40:17;1.10;;;1.10;;
22837;SDS011;11585;51.450;-0.240;2023-12-29T08:42:42;1.10;;;1.10;;
22837;SDS011;11585;51.450;-0.240;2023-12-29T08:48:30;1.10;;;1.10;;
22837;SDS011;11585;51.450;-0.240;2023-12-29T08:50:56;1.05;;;1.05;;
22837;SDS011;11585;51.450;-0.240;2023-12-29T08:53:21;1.00;;;1.00;;
22837;SDS011;11585;51.450;-0.240;2023-12-29T08:58:50;1.00;;;1.00;;
22837;SDS011;11585;51.450;-0.240;2023-12-29T09:01:16;1.00;;;1.00;;
22837;SDS011;11585;51.450;-0.240;2023-12-29T09:03:41;1.10;;;1.10;;
22837;SDS011;11585;51.450;-0.240;2023-12-29T09:06:08;1.10;;;1.10;;
22837;SDS011;11585;51.450;-0.240;2023-12-29T09:08:34;1.00;;;1.00;;
22837;SDS011;11585;51.450;-0.240;2023-12-29T09:11:01;1.10;;;1.10;;
22837;SDS011;11585;51.450;-0.240;2023-12-29T09:13:27;1.10;;;1.10;;
22837;SDS011;11585;51.450;-0.240;2023-12-29T09:15:55;1.10;;;1.10;;
22837;SDS011;11585;51.450;-0.240;2023-12-29T09:18:20;1.10;;;1.10;;
22837;SDS011;11585;51.450;-0.240;2023-12-29T09:20:46;1.00;;;1.00;;
22837;SDS011;11585;51.450;-0.240;2023-12-29T09:23:12;1.10;;;1.10;;
22837;SDS011;11585;51.450;-0.240;2023-12-29T09:28:42;1.00;;;1.00;;
22837;SDS011;11585;51.450;-0.240;2023-12-29T09:31:11;1.00;;;1.00;;
22837;SDS011;11585;51.450;-0.240;2023-12-29T09:33:37;1.10;;;1.10;;
22837;SDS011;11585;51.450;-0.240;2023-12-29T09:36:04;1.00;;;1.00;;
22837;SDS011;11585;51.450;-0.240;2023-12-29T09:38:30;1.00;;;1.00;;
22837;SDS011;11585;51.450;-0.240;2023-12-29T09:40:58;1.00;;;1.00;;
22837;SDS011;11585;51.450;-0.240;2023-12-29T09:43:30;0.90;;;0.90;;
22837;SDS011;11585;51.450;-0.240;2023-12-29T09:45:58;1.00;;;1.00;;
22837;SDS011;11585;51.450;-0.240;2023-12-29T09:48:25;1.00;;;1.00;;
22837;SDS011;11585;51.450;-0.240;2023-12-29T09:50:52;1.10;;;1.10;;
22837;SDS011;11585;51.450;-0.240;2023-12-29T09:53:20;1.10;;;1.10;;
22837;SDS011;11585;51.450;-0.240;2023-12-29T09:55:48;1.10;;;1.10;;
22837;SDS011;11585;51.450;-0.240;2023-12-29T09:58:15;1.10;;;1.10;;
22837;SDS011;11585;51.450;-0.240;2023-12-29T10:00:43;1.10;;;1.10;;
22837;SDS011;11585;51.450;-0.240;2023-12-29T10:03:11;1.00;;;1.00;;
22837;SDS011;11585;51.450;-0.240;2023-12-29T10:08:43;1.00;;;1.00;;
22837;SDS011;11585;51.450;-0.240;2023-12-29T10:11:11;1.00;;;1.00;;
22837;SDS011;11585;51.450;-0.240;2023-12-29T10:13:38;1.00;;;1.00;;
22837;SDS011;11585;51.450;-0.240;2023-12-29T10:19:10;1.20;;;1.20;;
22837;SDS011;11585;51.450;-0.240;2023-12-29T10:22:03;1.10;;;1.10;;
22837;SDS011;11585;51.450;-0.240;2023-12-29T10:27:58;1.00;;;1.00;;
22837;SDS011;11585;51.450;-0.240;2023-12-29T10:30:24;1.08;;;1.08;;
22837;SDS011;11585;51.450;-0.240;2023-12-29T10:32:50;1.02;;;1.02;;
22837;SDS011;11585;51.450;-0.240;2023-12-29T10:38:39;1.10;;;1.10;;
22837;SDS011;11585;51.450;-0.240;2023-12-29T10:41:18;0.90;;;0.90;;
22837;SDS011;11585;51.450;-0.240;2023-12-29T10:43:45;1.00;;;1.00;;
22837;SDS011;11585;51.450;-0.240;2023-12-29T10:49:13;1.00;;;1.00;;
22837;SDS011;11585;51.450;-0.240;2023-12-29T10:51:39;1.00;;;1.00;;
22837;SDS011;11585;51.450;-0.240;2023-12-29T10:54:05;1.00;;;1.00;;
22837;SDS011;11585;51.450;-0.240;2023-12-29T10:59:26;1.05;;;1.05;;
22837;SDS011;11585;51.450;-0.240;2023-12-29T11:01:52;1.00;;;1.00;;
22837;SDS011;11585;51.450;-0.240;2023-12-29T11:04:21;1.00;;;1.00;;
22837;SDS011;11585;51.450;-0.240;2023-12-29T11:06:47;0.80;;;0.80;;
22837;SDS011;11585;51.450;-0.240;2023-12-29T11:09:26;0.80;;;0.80;;
22837;SDS011;11585;51.450;-0.240;2023-12-29T11:11:57;1.00;;;1.00;;
22837;SDS011;11585;51.450;-0.240;2023-12-29T11:17:33;1.00;;;1.00;;
22837;SDS011;11585;51.450;-0.240;2023-12-29T11:20:00;0.98;;;0.98;;
22837;SDS011;11585;51.450;-0.240;2023-12-29T11:22:29;0.90;;;0.90;;
22837;SDS011;11585;51.450;-0.240;2023-12-29T11:28:17;1.02;;;1.02;;
22837;SDS011;11585;51.450;-0.240;2023-12-29T11:34:13;1.00;;;1.00;;
22837;SDS011;11585;51.450;-0.240;2023-12-29T11:42:43;1.00;;;1.00;;
22837;SDS011;11585;51.450;-0.240;2023-12-29T11:45:29;1.00;;;1.00;;
22837;SDS011;11585;51.450;-0.240;2023-12-29T11:48:00;1.10;;;1.10;;
22837;SDS011;11585;51.450;-0.240;2023-12-29T11:50:28;1.00;;;1.00;;
22837;SDS011;11585;51.450;-0.240;2023-12-29T11:52:58;1.00;;;1.00;;
22837;SDS011;11585;51.450;-0.240;2023-12-29T11:58:25;1.00;;;1.00;;
22837;SDS011;11585;51.450;-0.240;2023-12-29T12:00:53;1.00;;;1.00;;
22837;SDS011;11585;51.450;-0.240;2023-12-29T12:03:28;1.10;;;1.10;;
22837;SDS011;11585;51.450;-0.240;2023-12-29T12:05:57;0.90;;;0.90;;
22837;SDS011;11585;51.450;-0.240;2023-12-29T12:08:30;1.00;;;1.00;;
22837;SDS011;11585;51.450;-0.240;2023-12-29T12:13:54;0.90;;;0.90;;
22837;SDS011;11585;51.450;-0.240;2023-12-29T12:19:10;1.00;;;1.00;;
22837;SDS011;11585;51.450;-0.240;2023-12-29T12:21:39;0.90;;;0.90;;
22837;SDS011;11585;51.450;-0.240;2023-12-29T12:24:06;1.00;;;1.00;;
22837;SDS011;11585;51.450;-0.240;2023-12-29T12:26:34;0.90;;;0.90;;
22837;SDS011;11585;51.450;-0.240;2023-12-29T12:29:00;1.00;;;1.00;;
22837;SDS011;11585;51.450;-0.240;2023-12-29T12:31:26;0.90;;;0.90;;
22837;SDS011;11585;51.450;-0.240;2023-12-29T12:33:55;0.90;;;0.90;;
22837;SDS011;11585;51.450;-0.240;2023-12-29T12:36:26;0.90;;;0.90;;
22837;SDS011;11585;51.450;-0.240;2023-12-29T12:38:58;1.00;;;1.00;;
22837;SDS011;11585;51.450;-0.240;2023-12-29T12:41:24;0.90;;;0.90;;
22837;SDS011;11585;51.450;-0.240;2023-12-29T12:43:59;0.90;;;0.90;;
22837;SDS011;11585;51.450;-0.240;2023-12-29T12:49:10;0.90;;;0.90;;
22837;SDS011;11585;51.450;-0.240;2023-12-29T12:51:36;0.90;;;0.90;;
22837;SDS011;11585;51.450;-0.240;2023-12-29T12:54:02;0.90;;;0.90;;
22837;SDS011;11585;51.450;-0.240;2023-12-29T12:56:29;0.90;;;0.90;;
22837;SDS011;11585;51.450;-0.240;2023-12-29T12:58:56;1.00;;;1.00;;
22837;SDS011;11585;51.450;-0.240;2023-12-29T13:01:23;0.90;;;0.90;;
22837;SDS011;11585;51.450;-0.240;2023-12-29T13:03:51;0.90;;;0.90;;
22837;SDS011;11585;51.450;-0.240;2023-12-29T13:06:16;0.93;;;0.93;;
22837;SDS011;11585;51.450;-0.240;2023-12-29T13:08:43;0.90;;;0.90;;
22837;SDS011;11585;51.450;-0.240;2023-12-29T13:11:09;0.90;;;0.90;;
22837;SDS011;11585;51.450;-0.240;2023-12-29T13:13:38;0.90;;;0.90;;
22837;SDS011;11585;51.450;-0.240;2023-12-29T13:16:04;1.00;;;1.00;;
22837;SDS011;11585;51.450;-0.240;2023-12-29T13:18:30;0.90;;;0.90;;
22837;SDS011;11585;51.450;-0.240;2023-12-29T13:20:56;0.90;;;0.90;;
22837;SDS011;11585;51.450;-0.240;2023-12-29T13:23:26;1.00;;;1.00;;
22837;SDS011;11585;51.450;-0.240;2023-12-29T13:25:54;0.90;;;0.90;;
22837;SDS011;11585;51.450;-0.240;2023-12-29T13:28:21;0.90;;;0.90;;
22837;SDS011;11585;51.450;-0.240;2023-12-29T13:30:47;0.98;;;0.98;;
22837;SDS011;11585;51.450;-0.240;2023-12-29T13:33:16;0.90;;;0.90;;
22837;SDS011;11585;51.450;-0.240;2023-12-29T13:35:50;1.00;;;1.00;;
22837;SDS011;11585;51.450;-0.240;2023-12-29T13:38:24;1.00;;;1.00;;
22837;SDS011;11585;51.450;-0.240;2023-12-29T13:41:01;0.90;;;0.90;;
22837;SDS011;11585;51.450;-0.240;2023-12-29T13:43:34;0.90;;;0.90;;
22837;SDS011;11585;51.450;-0.240;2023-12-29T13:46:04;1.00;;;1.00;;
22837;SDS011;11585;51.450;-0.240;2023-12-29T13:48:30;0.90;;;0.90;;
22837;SDS011;11585;51.450;-0.240;2023-12-29T13:50:58;0.90;;;0.90;;
22837;SDS011;11585;51.450;-0.240;2023-12-29T13:53:24;0.90;;;0.90;;
22837;SDS011;11585;51.450;-0.240;2023-12-29T13:58:36;0.90;;;0.90;;
22837;SDS011;11585;51.450;-0.240;2023-12-29T14:01:03;1.00;;;1.00;;
22837;SDS011;11585;51.450;-0.240;2023-12-29T14:06:40;1.10;;;1.10;;
22837;SDS011;11585;51.450;-0.240;2023-12-29T14:09:14;1.10;;;1.10;;
22837;SDS011;11585;51.450;-0.240;2023-12-29T14:11:47;1.00;;;1.00;;
22837;SDS011;11585;51.450;-0.240;2023-12-29T14:14:14;1.00;;;1.00;;
22837;SDS011;11585;51.450;-0.240;2023-12-29T14:16:46;1.10;;;1.10;;
22837;SDS011;11585;51.450;-0.240;2023-12-29T14:19:12;1.10;;;1.10;;
22837;SDS011;11585;51.450;-0.240;2023-12-29T14:21:37;1.10;;;1.10;;
22837;SDS011;11585;51.450;-0.240;2023-12-29T14:26:41;1.05;;;1.05;;
22837;SDS011;11585;51.450;-0.240;2023-12-29T14:29:09;1.10;;;1.10;;
22837;SDS011;11585;51.450;-0.240;2023-12-29T14:31:43;1.08;;;1.08;;
22837;SDS011;11585;51.450;-0.240;2023-12-29T14:34:09;1.00;;;1.00;;
22837;SDS011;11585;51.450;-0.240;2023-12-29T14:36:37;1.00;;;1.00;;
22837;SDS011;11585;51.450;-0.240;2023-12-29T14:39:03;1.10;;;1.10;;
22837;SDS011;11585;51.450;-0.240;2023-12-29T14:41:29;1.10;;;1.10;;
22837;SDS011;11585;51.450;-0.240;2023-12-29T14:43:55;1.00;;;1.00;;
22837;SDS011;11585;51.450;-0.240;2023-12-29T14:46:22;1.00;;;1.00;;
22837;SDS011;11585;51.450;-0.240;2023-12-29T14:48:48;1.10;;;1.10;;
22837;SDS011;11585;51.450;-0.240;2023-12-29T14:51:14;1.00;;;1.00;;
22837;SDS011;11585;51.450;-0.240;2023-12-29T14:53:47;1.00;;;1.00;;
22837;SDS011;11585;51.450;-0.240;2023-12-29T14:56:14;1.00;;;1.00;;
22837;SDS011;11585;51.450;-0.240;2023-12-29T14:58:41;1.10;;;1.10;;
22837;SDS011;11585;51.450;-0.240;2023-12-29T15:01:07;1.00;;;1.00;;
22837;SDS011;11585;51.450;-0.240;2023-12-29T15:03:34;1.10;;;1.10;;
22837;SDS011;11585;51.450;-0.240;2023-12-29T15:06:02;1.10;;;1.10;;
22837;SDS011;11585;51.450;-0.240;2023-12-29T15:08:29;1.00;;;1.00;;
22837;SDS011;11585;51.450;-0.240;2023-12-29T15:11:03;1.10;;;1.10;;
22837;SDS011;11585;51.450;-0.240;2023-12-29T15:13:29;1.10;;;1.10;;
22837;SDS011;11585;51.450;-0.240;2023-12-29T15:18:40;1.10;;;1.10;;
22837;SDS011;11585;51.450;-0.240;2023-12-29T15:21:05;1.08;;;1.08;;
22837;SDS011;11585;51.450;-0.240;2023-12-29T15:23:31;1.10;;;1.10;;
22837;SDS011;11585;51.450;-0.240;2023-12-29T15:25:57;1.00;;;1.00;;
22837;SDS011;11585;51.450;-0.240;2023-12-29T15:28:23;1.10;;;1.10;;
22837;SDS011;11585;51.450;-0.240;2023-12-29T15:30:48;1.10;;;1.10;;
22837;SDS011;11585;51.450;-0.240;2023-12-29T15:33:15;1.10;;;1.10;;
22837;SDS011;11585;51.450;-0.240;2023-12-29T15:38:25;1.10;;;1.10;;
22837;SDS011;11585;51.450;-0.240;2023-12-29T15:40:51;1.10;;;1.10;;
22837;SDS011;11585;51.450;-0.240;2023-12-29T15:43:16;1.15;;;1.15;;
22837;SDS011;11585;51.450;-0.240;2023-12-29T15:45:43;1.10;;;1.10;;
22837;SDS011;11585;51.450;-0.240;2023-12-29T15:48:09;1.10;;;1.10;;
22837;SDS011;11585;51.450;-0.240;2023-12-29T15:50:34;1.10;;;1.10;;
22837;SDS011;11585;51.450;-0.240;2023-12-29T15:53:00;1.10;;;1.10;;
22837;SDS011;11585;51.450;-0.240;2023-12-29T15:55:28;1.08;;;1.08;;
22837;SDS011;11585;51.450;-0.240;2023-12-29T15:57:54;1.10;;;1.10;;
22837;SDS011;11585;51.450;-0.240;2023-12-29T16:00:19;1.10;;;1.10;;
22837;SDS011;11585;51.450;-0.240;2023-12-29T16:02:45;1.00;;;1.00;;
22837;SDS011;11585;51.450;-0.240;2023-12-29T16:07:57;1.08;;;1.08;;
22837;SDS011;11585;51.450;-0.240;2023-12-29T16:10:22;1.00;;;1.00;;
22837;SDS011;11585;51.450;-0.240;2023-12-29T16:12:49;1.10;;;1.10;;
22837;SDS011;11585;51.450;-0.240;2023-12-29T16:15:15;1.10;;;1.10;;
22837;SDS011;11585;51.450;-0.240;2023-12-29T16:17:40;1.10;;;1.10;;
22837;SDS011;11585;51.450;-0.240;2023-12-29T16:20:06;1.10;;;1.10;;
22837;SDS011;11585;51.450;-0.240;2023-12-29T16:22:32;1.02;;;1.02;;
22837;SDS011;11585;51.450;-0.240;2023-12-29T16:24:58;1.00;;;1.00;;
22837;SDS011;11585;51.450;-0.240;2023-12-29T16:27:24;1.10;;;1.10;;
22837;SDS011;11585;51.450;-0.240;2023-12-29T16:29:49;1.10;;;1.10;;
22837;SDS011;11585;51.450;-0.240;2023-12-29T16:32:22;1.15;;;1.15;;
22837;SDS011;11585;51.450;-0.240;2023-12-29T16:34:50;1.10;;;1.10;;
22837;SDS011;11585;51.450;-0.240;2023-12-29T16:37:15;1.10;;;1.10;;
22837;SDS011;11585;51.450;-0.240;2023-12-29T16:39:41;1.10;;;1.10;;
22837;SDS011;11585;51.450;-0.240;2023-12-29T16:42:07;1.10;;;1.10;;
22837;SDS011;11585;51.450;-0.240;2023-12-29T16:44:35;1.20;;;1.20;;
22837;SDS011;11585;51.450;-0.240;2023-12-29T16:47:00;1.10;;;1.10;;
22837;SDS011;11585;51.450;-0.240;2023-12-29T16:49:26;1.10;;;1.10;;
22837;SDS011;11585;51.450;-0.240;2023-12-29T16:51:52;1.10;;;1.10;;
22837;SDS011;11585;51.450;-0.240;2023-12-29T16:54:17;1.10;;;1.10;;
22837;SDS011;11585;51.450;-0.240;2023-12-29T16:59:28;1.10;;;1.10;;
22837;SDS011;11585;51.450;-0.240;2023-12-29T17:01:54;1.20;;;1.20;;
22837;SDS011;11585;51.450;-0.240;2023-12-29T17:04:23;1.10;;;1.10;;
22837;SDS011;11585;51.450;-0.240;2023-12-29T17:09:15;1.10;;;1.10;;
22837;SDS011;11585;51.450;-0.240;2023-12-29T17:11:41;1.00;;;1.00;;
22837;SDS011;11585;51.450;-0.240;2023-12-29T17:14:11;1.20;;;1.20;;
22837;SDS011;11585;51.450;-0.240;2023-12-29T17:16:41;1.10;;;1.10;;
22837;SDS011;11585;51.450;-0.240;2023-12-29T17:19:07;1.20;;;1.20;;